Time;durP1;ratioP1;P1;durP2;ratioP2;P2;SDS_P1;SDS_P2;PMS_P1;PMS_P2;Temp;Humidity;BMP_temperature;BMP_pressure;BME280_temperature;BME280_humidity;BME280_pressure;Samples;Min_cycle;Max_cycle;Signal;HPM_P1;HPM_P2
2021/10/25 00:00:03;;;;;;;;;;;;;;;;;;5111167;28;19915;-73
2021/10/25 00:02:36;;;;;;;;;;;;;;;;;;5092661;28;19900;-73
2021/10/25 00:05:01;;;;;;;;;;;;;;;;;;5106588;28;20261;-73
2021/10/25 00:07:27;;;;;;;;;;;;;;;;;;5105766;28;19901;-74
2021/10/25 00:09:52;;;;;;;;;;;;;;;;;;5108170;28;19905;-73
2021/10/25 00:12:17;;;;;;;;;;;;;;;;;;5103443;28;19908;-73
2021/10/25 00:14:42;;;;;;;;;;;;;;;;;;5105725;28;19908;-73
2021/10/25 00:17:08;;;;;;;;;;;;;;;;;;5096670;28;19914;-74
2021/10/25 00:19:33;;;;;;;;;;;;;;;;;;5106998;28;19916;-73
2021/10/25 00:21:58;;;;;;;;;;;;;;;;;;5107372;28;19911;-73
2021/10/25 00:24:24;;;;;;;;;;;;;;;;;;5098784;28;19900;-73
2021/10/25 00:26:49;;;;;;;;;;;;;;;;;;5098438;28;19908;-73
2021/10/25 00:29:15;;;;;;;;;;;;;;;;;;5097889;28;19897;-73
2021/10/25 00:31:40;;;;;;;;;;;;;;;;;;5098368;28;19917;-73
2021/10/25 00:34:05;;;;;;;;;;;;;;;;;;5082969;28;19926;-73
2021/10/25 00:36:30;;;;;;;;;;;;;;;;;;5106253;28;19964;-72
2021/10/25 00:38:56;;;;;;;;;;;;;;;;;;5106522;28;19919;-73
2021/10/25 00:41:22;;;;;;;;;;;;;;;;;;5097602;28;19954;-73
2021/10/25 00:43:47;;;;;;;;;;;;;;;;;;5115199;28;19908;-73
2021/10/25 00:46:12;;;;;;;;;;;;;;;;;;5099432;28;19924;-73
2021/10/25 00:48:38;;;;;;;;;;;;;;;;;;5098141;28;19900;-73
2021/10/25 00:51:03;;;;;;;;;;;;;;;;;;5098775;28;19900;-73
2021/10/25 00:53:28;;;;;;;;;;;;;;;;;;5103612;28;19941;-73
2021/10/25 00:55:55;;;;;;;;;;;;;;;;;;5079819;28;20140;-73
2021/10/25 00:58:21;;;;;;;;;;;;;;;;;;5108510;28;20066;-73
2021/10/25 01:00:47;;;;;;;;;;;;;;;;;;5098635;28;19903;-73
2021/10/25 01:03:12;;;;;;;;;;;;;;;;;;5078312;28;19939;-72
2021/10/25 01:05:37;;;;;;;;;;;;;;;;;;5086370;28;19923;-73
2021/10/25 01:08:03;;;;;;;;;;;;;;;;;;5106944;28;19911;-73
2021/10/25 01:10:28;;;;;;;;;;;;;;;;;;5097069;28;19919;-73
2021/10/25 01:12:54;;;;;;;;;;;;;;;;;;5092584;28;19959;-73
2021/10/25 01:15:19;;;;;;;;;;;;;;;;;;5108534;28;19909;-73
2021/10/25 01:17:49;;;;;;;;;;;;;;;;;;5082365;28;19901;-73
2021/10/25 01:20:14;;;;;;;;;;;;;;;;;;5094854;28;19943;-73
2021/10/25 01:22:39;;;;;;;;;;;;;;;;;;5097278;28;19900;-72
2021/10/25 01:25:05;;;;;;;;;;;;;;;;;;5093097;28;19900;-73
2021/10/25 01:27:31;;;;;;;;;;;;;;;;;;5086407;28;19988;-73
2021/10/25 01:29:56;;;;;;;;;;;;;;;;;;5088278;28;19936;-73
2021/10/25 01:32:22;;;;;;;;;;;;;;;;;;5096380;28;19897;-73
2021/10/25 01:34:47;;;;;;;;;;;;;;;;;;5099092;28;19900;-73
2021/10/25 01:37:12;;;;;;;;;;;;;;;;;;5097726;28;19912;-73
2021/10/25 01:39:41;;;;;;;;;;;;;;;;;;5113371;28;19912;-73
2021/10/25 01:42:06;;;;;;;;;;;;;;;;;;5097731;28;19900;-73
2021/10/25 01:44:32;;;;;;;;;;;;;;;;;;5103935;28;19945;-72
2021/10/25 01:46:57;;;;;;;;;;;;;;;;;;5079833;28;19954;-73
2021/10/25 01:49:28;;;;;;;;;;;;;;;;;;5095161;28;19908;-73
2021/10/25 01:51:53;;;;;;;;;;;;;;;;;;5080171;28;19928;-72
2021/10/25 01:54:18;;;;;;;;;;;;;;;;;;5096504;28;19897;-73
2021/10/25 01:56:47;;;;;;;;;;;;;;;;;;5097172;28;19900;-73
2021/10/25 01:59:12;;;;;;;;;;;;;;;;;;5094546;28;19939;-73
2021/10/25 02:01:38;;;;;;;;;;;;;;;;;;5096221;28;19901;-73
2021/10/25 02:04:04;;;;;;;;;;;;;;;;;;5107794;28;19916;-73
2021/10/25 02:06:30;;;;;;;;;;;;;;;;;;5097570;28;19906;-73
2021/10/25 02:08:55;;;;;;;;;;;;;;;;;;5103899;28;20351;-73
2021/10/25 02:11:22;;;;;;;;;;;;;;;;;;5097195;28;19965;-72
2021/10/25 02:13:55;;;;;;;;;;;;;;;;;;5096573;28;19897;-73
2021/10/25 02:16:21;;;;;;;;;;;;;;;;;;5098323;28;19918;-73
2021/10/25 02:18:46;;;;;;;;;;;;;;;;;;5080363;28;19900;-73
2021/10/25 02:21:11;;;;;;;;;;;;;;;;;;5095275;28;19931;-73
2021/10/25 02:23:37;;;;;;;;;;;;;;;;;;5095674;28;19908;-73
2021/10/25 02:26:02;;;;;;;;;;;;;;;;;;5096395;28;19907;-73
2021/10/25 02:28:27;;;;;;;;;;;;;;;;;;5104051;28;19932;-73
2021/10/25 02:30:55;;;;;;;;;;;;;;;;;;5097027;28;19919;-72
2021/10/25 02:33:21;;;;;;;;;;;;;;;;;;5095475;28;19911;-73
2021/10/25 02:35:47;;;;;;;;;;;;;;;;;;5095597;28;19912;-73
2021/10/25 02:38:13;;;;;;;;;;;;;;;;;;5095981;28;19956;-73
2021/10/25 02:40:43;;;;;;;;;;;;;;;;;;5097555;28;19904;-73
2021/10/25 02:43:08;;;;;;;;;;;;;;;;;;5095846;28;19907;-73
2021/10/25 02:45:33;;;;;;;;;;;;;;;;;;5096861;28;19904;-73
2021/10/25 02:47:59;;;;;;;;;;;;;;;;;;5091932;28;19900;-73
2021/10/25 02:50:25;;;;;;;;;;;;;;;;;;5104798;28;19900;-74
2021/10/25 02:52:50;;;;;;;;;;;;;;;;;;5095408;28;19908;-73
2021/10/25 02:55:16;;;;;;;;;;;;;;;;;;5109669;28;19911;-73
2021/10/25 02:57:43;;;;;;;;;;;;;;;;;;5084525;28;19911;-73
2021/10/25 03:00:08;;;;;;;;;;;;;;;;;;5104396;28;20107;-73
2021/10/25 03:02:36;;;;;;;;;;;;;;;;;;5095926;28;19907;-73
2021/10/25 03:05:01;;;;;;;;;;;;;;;;;;5093239;28;19904;-73
2021/10/25 03:07:26;;;;;;;;;;;;;;;;;;5096608;28;19932;-72
2021/10/25 03:09:51;;;;;;;;;;;;;;;;;;5094279;28;19909;-73
2021/10/25 03:12:17;;;;;;;;;;;;;;;;;;5103428;28;19943;-73
2021/10/25 03:14:42;;;;;;;;;;;;;;;;;;5096990;28;19912;-73
2021/10/25 03:17:07;;;;;;;;;;;;;;;;;;5095080;28;19904;-73
2021/10/25 03:19:41;;;;;;;;;;;;;;;;;;5085743;28;19971;-73
2021/10/25 03:22:06;;;;;;;;;;;;;;;;;;5103654;28;19904;-73
2021/10/25 03:24:32;;;;;;;;;;;;;;;;;;5080307;28;19906;-74
2021/10/25 03:26:57;;;;;;;;;;;;;;;;;;5120180;28;19900;-73
2021/10/25 03:29:22;;;;;;;;;;;;;;;;;;5104607;28;19979;-73
2021/10/25 03:31:48;;;;;;;;;;;;;;;;;;5096532;28;19915;-73
2021/10/25 03:34:14;;;;;;;;;;;;;;;;;;5079556;28;20129;-73
2021/10/25 03:36:42;;;;;;;;;;;;;;;;;;5095134;28;19932;-72
2021/10/25 03:39:07;;;;;;;;;;;;;;;;;;5106493;28;19935;-73
2021/10/25 03:41:43;;;;;;;;;;;;;;;;;;5110378;28;19927;-73
2021/10/25 03:47:19;;;;;;;;;;;;;;;;;;5049021;28;19913;-72
2021/10/25 03:55:22;;;;;;;;;;;;;;;;;;5091961;28;19947;-73
2021/10/25 04:01:10;;;;;;;;;;;;;;;;;;5093016;28;19916;-73
2021/10/25 04:28:34;;;;;;;;;;;;;;;;;;5097012;28;19916;-72
2021/10/25 04:31:00;;;;;;;;;;;;;;;;;;5108385;28;20125;-72
2021/10/25 04:33:32;;;;;;;;;;;;;;;;;;5081590;28;19963;-72
2021/10/25 04:36:18;;;;;;;;;;;;;;;;;;5079791;28;19900;-72
2021/10/25 04:39:16;;;;;;;;;;;;;;;;;;5089522;28;19900;-72
2021/10/25 04:41:41;;;;;;;;;;;;;;;;;;5098920;28;19919;-72
2021/10/25 04:44:07;;;;;;;;;;;;;;;;;;5120670;28;19901;-72
2021/10/25 04:46:32;;;;;;;;;;;;;;;;;;5102206;28;19976;-72
2021/10/25 04:48:57;;;;;;;;;;;;;;;;;;5093919;28;19928;-73
2021/10/25 04:51:34;;;;;;;;;;;;;;;;;;5097121;28;19900;-72
2021/10/25 04:54:10;;;;;;;;;;;;;;;;;;5099071;28;19900;-72
2021/10/25 04:56:47;;;;;;;;;;;;;;;;;;5105404;28;19912;-72
2021/10/25 04:59:12;;;;;;;;;;;;;;;;;;5096150;28;19901;-72
2021/10/25 05:01:38;;;;;;;;;;;;;;;;;;5098938;28;19900;-73
2021/10/25 05:04:03;;;;;;;;;;;;;;;;;;5093197;28;19905;-73
2021/10/25 05:06:29;;;;;;;;;;;;;;;;;;5093572;28;19934;-74
2021/10/25 05:08:55;;;;;;;;;;;;;;;;;;5089296;28;19934;-73
2021/10/25 05:11:20;;;;;;;;;;;;;;;;;;5095504;28;19931;-74
2021/10/25 05:13:46;;;;;;;;;;;;;;;;;;5097819;28;19905;-74
2021/10/25 05:16:11;;;;;;;;;;;;;;;;;;5092859;28;19920;-74
2021/10/25 05:18:40;;;;;;;;;;;;;;;;;;5100771;28;19961;-73
2021/10/25 05:21:05;;;;;;;;;;;;;;;;;;5096258;28;19972;-73
2021/10/25 05:23:30;;;;;;;;;;;;;;;;;;5097495;28;19900;-73
2021/10/25 05:25:55;;;;;;;;;;;;;;;;;;5094243;28;19900;-73
2021/10/25 05:28:21;;;;;;;;;;;;;;;;;;5097273;28;19908;-73
2021/10/25 05:30:46;;;;;;;;;;;;;;;;;;5096262;28;19964;-73
2021/10/25 05:33:21;;;;;;;;;;;;;;;;;;5096301;28;19909;-73
2021/10/25 05:35:46;;;;;;;;;;;;;;;;;;5093500;28;19907;-73
2021/10/25 05:38:12;;;;;;;;;;;;;;;;;;5095884;28;19913;-74
2021/10/25 05:40:38;;;;;;;;;;;;;;;;;;5095799;28;19908;-73
2021/10/25 05:43:04;;;;;;;;;;;;;;;;;;5096805;28;20182;-73
2021/10/25 05:45:29;;;;;;;;;;;;;;;;;;5107219;28;19975;-73
2021/10/25 05:47:54;;;;;;;;;;;;;;;;;;5098328;28;19904;-73
2021/10/25 05:50:20;;;;;;;;;;;;;;;;;;5097988;28;19904;-73
2021/10/25 05:52:45;;;;;;;;;;;;;;;;;;5095375;28;19930;-68
2021/10/25 05:55:10;;;;;;;;;;;;;;;;;;5093428;28;19954;-68
2021/10/25 05:57:37;;;;;;;;;;;;;;;;;;5096199;28;19908;-75
2021/10/25 06:00:05;;;;;;;;;;;;;;;;;;5106294;28;19976;-75
2021/10/25 06:02:42;;;;;;;;;;;;;;;;;;5104998;28;19907;-72
2021/10/25 06:05:12;;;;;;;;;;;;;;;;;;5093769;28;19916;-73
2021/10/25 06:07:44;;;;;;;;;;;;;;;;;;5090409;28;19905;-72
2021/10/25 06:10:13;;;;;;;;;;;;;;;;;;5108890;28;19934;-73
2021/10/25 06:12:47;;;;;;;;;;;;;;;;;;5086945;28;19911;-73
2021/10/25 06:15:19;;;;;;;;;;;;;;;;;;5094820;28;19944;-73
2021/10/25 06:17:57;;;;;;;;;;;;;;;;;;5096085;28;19915;-72
2021/10/25 06:20:22;;;;;;;;;;;;;;;;;;5101849;28;19916;-73
2021/10/25 06:22:48;;;;;;;;;;;;;;;;;;5112710;28;19922;-72
2021/10/25 06:25:14;;;;;;;;;;;;;;;;;;5093453;28;19905;-72
2021/10/25 06:27:47;;;;;;;;;;;;;;;;;;5101181;28;19901;-74
2021/10/25 06:30:13;;;;;;;;;;;;;;;;;;5093121;28;19924;-73
2021/10/25 06:32:38;;;;;;;;;;;;;;;;;;5091874;28;20139;-73
2021/10/25 06:35:16;;;;;;;;;;;;;;;;;;5094526;28;19908;-73
2021/10/25 06:38:12;;;;;;;;;;;;;;;;;;5050473;28;19905;-73
2021/10/25 06:40:37;;;;;;;;;;;;;;;;;;5094954;28;19912;-72
2021/10/25 06:43:03;;;;;;;;;;;;;;;;;;5091717;28;19919;-72
2021/10/25 06:45:28;;;;;;;;;;;;;;;;;;5095981;28;19896;-73
2021/10/25 06:47:53;;;;;;;;;;;;;;;;;;5095362;28;19911;-74
2021/10/25 06:50:19;;;;;;;;;;;;;;;;;;5108042;28;19935;-71
2021/10/25 06:52:47;;;;;;;;;;;;;;;;;;5095897;28;19959;-73
2021/10/25 06:55:12;;;;;;;;;;;;;;;;;;5095399;28;19912;-73
2021/10/25 06:57:40;;;;;;;;;;;;;;;;;;5080197;28;19901;-74
2021/10/25 07:00:07;;;;;;;;;;;;;;;;;;5086532;28;19909;-71
2021/10/25 07:02:32;;;;;;;;;;;;;;;;;;5105252;28;19909;-71
2021/10/25 07:05:04;;;;;;;;;;;;;;;;;;5117283;28;19946;-72
2021/10/25 07:07:30;;;;;;;;;;;;;;;;;;5087844;28;19900;-74
2021/10/25 07:09:56;;;;;;;;;;;;;;;;;;5104584;28;19900;-72
2021/10/25 07:12:22;;;;;;;;;;;;;;;;;;5102867;28;19926;-72
2021/10/25 07:14:51;;;;;;;;;;;;;;;;;;5103187;28;19901;-72
2021/10/25 07:20:08;;;;;;;;;;;;;;;;;;5098581;28;20143;-72
2021/10/25 08:09:52;;;;;;;;;;;;;;;;;;5095200;28;19900;-73
2021/10/25 08:12:20;;;;;;;;;;;;;;;;;;5096358;28;19909;-72
2021/10/25 08:14:57;;;;;;;;;;;;;;;;;;5122245;27;19942;-73
2021/10/25 08:17:24;;;;;;;;;;;;;;;;;;5119879;28;19919;-77
2021/10/25 08:19:50;;;;;;;;;;;;;;;;;;5089299;28;19923;-73
2021/10/25 08:22:16;;;;;;;;;;;;;;;;;;5089224;28;19900;-73
2021/10/25 08:24:42;;;;;;;;;;;;;;;;;;5088763;28;19916;-75
2021/10/25 08:27:13;;;;;;;;;;;;;;;;;;5090210;28;19903;-74
2021/10/25 08:29:45;;;;;;;;;;;;;;;;;;5084400;28;19940;-73
2021/10/25 08:40:25;;;;;;;;;;;;;;;;;;5093385;28;19976;-74
2021/10/25 08:42:51;;;;;;;;;;;;;;;;;;5095495;28;19913;-73
2021/10/25 08:45:28;;;;;;;;;;;;;;;;;;5098060;28;19957;-73
2021/10/25 08:47:53;;;;;;;;;;;;;;;;;;5116208;27;19955;-74
2021/10/25 08:50:19;;;;;;;;;;;;;;;;;;5099170;28;19909;-74
2021/10/25 08:52:44;;;;;;;;;;;;;;;;;;5115155;27;19936;-73
2021/10/25 08:55:12;;;;;;;;;;;;;;;;;;5064818;28;19917;-73
2021/10/25 08:57:38;;;;;;;;;;;;;;;;;;5088264;28;19939;-72
2021/10/25 09:00:05;;;;;;;;;;;;;;;;;;5081036;28;20113;-72
2021/10/25 09:02:33;;;;;;;;;;;;;;;;;;5111353;27;19920;-74
2021/10/25 09:05:07;;;;;;;;;;;;;;;;;;5079554;28;19916;-74
2021/10/25 09:07:32;;;;;;;;;;;;;;;;;;5087074;28;19920;-77
2021/10/25 09:09:58;;;;;;;;;;;;;;;;;;5085860;28;19919;-74
2021/10/25 09:12:23;;;;;;;;;;;;;;;;;;5085580;28;19908;-74
2021/10/25 09:14:52;;;;;;;;;;;;;;;;;;5085235;28;19935;-76
2021/10/25 09:17:19;;;;;;;;;;;;;;;;;;5068586;28;19919;-74
2021/10/25 09:19:48;;;;;;;;;;;;;;;;;;5113733;28;20292;-74
2021/10/25 09:22:17;;;;;;;;;;;;;;;;;;5084787;28;20251;-75
2021/10/25 09:24:42;;;;;;;;;;;;;;;;;;5081638;28;19916;-74
2021/10/25 09:27:09;;;;;;;;;;;;;;;;;;5110944;28;20207;-73
2021/10/25 09:29:35;;;;;;;;;;;;;;;;;;5086956;28;19907;-73
2021/10/25 09:32:07;;;;;;;;;;;;;;;;;;5084368;28;19921;-74
2021/10/25 09:34:36;;;;;;;;;;;;;;;;;;5083242;28;19900;-73
2021/10/25 09:37:24;;;;;;;;;;;;;;;;;;5095896;28;19907;-75
2021/10/25 09:39:53;;;;;;;;;;;;;;;;;;5081778;28;19908;-76
2021/10/25 09:42:45;;;;;;;;;;;;;;;;;;5096324;28;19908;-74
2021/10/25 09:50:50;;;;;;;;;;;;;;;;;;5080309;28;19908;-75
2021/10/25 09:53:17;;;;;;;;;;;;;;;;;;5086347;28;19911;-73
2021/10/25 09:55:43;;;;;;;;;;;;;;;;;;5086191;28;20151;-73
2021/10/25 09:58:21;;;;;;;;;;;;;;;;;;5079645;28;19904;-74
2021/10/25 10:00:53;;;;;;;;;;;;;;;;;;5112168;27;19916;-72
2021/10/25 10:03:20;;;;;;;;;;;;;;;;;;5081179;28;19900;-73
2021/10/25 10:05:59;;;;;;;;;;;;;;;;;;5095083;28;19900;-73
2021/10/25 10:08:27;;;;;;;;;;;;;;;;;;5109162;28;19900;-73
2021/10/25 10:10:52;;;;;;;;;;;;;;;;;;5077355;28;19934;-76
2021/10/25 10:13:19;;;;;;;;;;;;;;;;;;5092131;28;19972;-74
2021/10/25 10:16:06;;;;;;;;;;;;;;;;;;5093178;28;19900;-76
2021/10/25 10:18:34;;;;;;;;;;;;;;;;;;5080782;28;20655;-73
2021/10/25 10:21:23;;;;;;;;;;;;;;;;;;5079287;28;19935;-73
2021/10/25 10:23:53;;;;;;;;;;;;;;;;;;5082668;28;19926;-74
2021/10/25 10:26:19;;;;;;;;;;;;;;;;;;5111655;28;19961;-74
2021/10/25 10:28:50;;;;;;;;;;;;;;;;;;5085638;28;19908;-74
2021/10/25 10:31:16;;;;;;;;;;;;;;;;;;5069295;28;19920;-76
2021/10/25 10:34:00;;;;;;;;;;;;;;;;;;5069001;28;19935;-74
2021/10/25 10:36:26;;;;;;;;;;;;;;;;;;5078248;28;20197;-75
2021/10/25 10:39:11;;;;;;;;;;;;;;;;;;5070030;28;19904;-74
2021/10/25 10:42:08;;;;;;;;;;;;;;;;;;5065156;28;20148;-74
2021/10/25 10:44:59;;;;;;;;;;;;;;;;;;5093943;28;19987;-75
2021/10/25 10:47:27;;;;;;;;;;;;;;;;;;5079237;28;20081;-75
2021/10/25 10:49:57;;;;;;;;;;;;;;;;;;5085648;28;19948;-75
2021/10/25 10:55:03;;;;;;;;;;;;;;;;;;5077365;28;20121;-73
2021/10/25 10:57:45;;;;;;;;;;;;;;;;;;5094724;28;19965;-72
2021/10/25 11:00:11;;;;;;;;;;;;;;;;;;5094513;28;19912;-75
2021/10/25 11:02:36;;;;;;;;;;;;;;;;;;5095435;28;20106;-76
2021/10/25 11:05:02;;;;;;;;;;;;;;;;;;5095320;28;19974;-76
2021/10/25 11:07:27;;;;;;;;;;;;;;;;;;5094875;28;19939;-76
2021/10/25 11:09:52;;;;;;;;;;;;;;;;;;5116818;27;19916;-76
2021/10/25 11:12:20;;;;;;;;;;;;;;;;;;5104044;28;19915;-75
2021/10/25 11:14:47;;;;;;;;;;;;;;;;;;5102183;28;19907;-76
2021/10/25 11:19:40;;;;;;;;;;;;;;;;;;5102376;28;19908;-73
2021/10/25 11:22:06;;;;;;;;;;;;;;;;;;5102420;28;19947;-74
2021/10/25 11:24:31;;;;;;;;;;;;;;;;;;5104456;28;20098;-72
2021/10/25 11:26:56;;;;;;;;;;;;;;;;;;5106805;28;19911;-74
2021/10/25 11:29:21;;;;;;;;;;;;;;;;;;5101653;28;19912;-73
2021/10/25 11:31:47;;;;;;;;;;;;;;;;;;5091577;28;19909;-71
2021/10/25 11:34:14;;;;;;;;;;;;;;;;;;5101732;28;19912;-70
2021/10/25 11:36:39;;;;;;;;;;;;;;;;;;5102185;28;19900;-72
2021/10/25 11:39:09;;;;;;;;;;;;;;;;;;5102646;28;20181;-72
2021/10/25 11:41:34;;;;;;;;;;;;;;;;;;5095016;28;19933;-71
2021/10/25 11:44:00;;;;;;;;;;;;;;;;;;5100080;28;19901;-71
2021/10/25 11:46:25;;;;;;;;;;;;;;;;;;5104181;28;19900;-71
2021/10/25 11:48:50;;;;;;;;;;;;;;;;;;5101785;28;19958;-71
2021/10/25 11:51:15;;;;;;;;;;;;;;;;;;5094974;28;19901;-72
2021/10/25 11:53:41;;;;;;;;;;;;;;;;;;5104156;28;19964;-71
2021/10/25 11:56:06;;;;;;;;;;;;;;;;;;5103632;28;19970;-71
2021/10/25 11:58:32;;;;;;;;;;;;;;;;;;5101592;28;19911;-72
2021/10/25 12:00:57;;;;;;;;;;;;;;;;;;5092966;28;19912;-72
2021/10/25 12:03:32;;;;;;;;;;;;;;;;;;5091916;28;19919;-73
2021/10/25 12:05:59;;;;;;;;;;;;;;;;;;5090574;28;19946;-71
2021/10/25 12:08:25;;;;;;;;;;;;;;;;;;5108001;28;19899;-71
2021/10/25 12:10:50;;;;;;;;;;;;;;;;;;5104201;28;19984;-71
2021/10/25 12:13:15;;;;;;;;;;;;;;;;;;5104343;28;19900;-71
2021/10/25 12:15:40;;;;;;;;;;;;;;;;;;5101559;28;19901;-72
2021/10/25 12:18:06;;;;;;;;;;;;;;;;;;5105771;28;19900;-71
2021/10/25 12:20:32;;;;;;;;;;;;;;;;;;5101575;28;19900;-70
2021/10/25 12:22:57;;;;;;;;;;;;;;;;;;5108069;28;19908;-71
2021/10/25 12:25:22;;;;;;;;;;;;;;;;;;5106193;28;19930;-71
2021/10/25 12:27:48;;;;;;;;;;;;;;;;;;5094561;28;19963;-71
2021/10/25 12:30:13;;;;;;;;;;;;;;;;;;5102650;28;19920;-71
2021/10/25 12:32:39;;;;;;;;;;;;;;;;;;5104498;28;19960;-73
2021/10/25 12:35:04;;;;;;;;;;;;;;;;;;5102420;28;19943;-72
2021/10/25 12:37:30;;;;;;;;;;;;;;;;;;5101166;28;19904;-71
2021/10/25 12:39:55;;;;;;;;;;;;;;;;;;5106530;28;19901;-71
2021/10/25 12:42:20;;;;;;;;;;;;;;;;;;5104358;28;19900;-71
2021/10/25 12:44:47;;;;;;;;;;;;;;;;;;5102012;28;19905;-71
2021/10/25 12:47:12;;;;;;;;;;;;;;;;;;5103234;28;19900;-71
2021/10/25 12:49:37;;;;;;;;;;;;;;;;;;5108807;28;19926;-71
2021/10/25 12:52:03;;;;;;;;;;;;;;;;;;5105461;28;19932;-72
2021/10/25 12:54:28;;;;;;;;;;;;;;;;;;5109227;28;19901;-72
2021/10/25 12:56:53;;;;;;;;;;;;;;;;;;5094926;28;19908;-72
2021/10/25 12:59:20;;;;;;;;;;;;;;;;;;5110174;28;19900;-72
2021/10/25 13:01:45;;;;;;;;;;;;;;;;;;5097644;28;19900;-71
2021/10/25 13:04:10;;;;;;;;;;;;;;;;;;5091907;28;19930;-71
2021/10/25 13:06:36;;;;;;;;;;;;;;;;;;5108671;28;19909;-74
2021/10/25 13:09:02;;;;;;;;;;;;;;;;;;5099215;28;19908;-71
2021/10/25 13:11:28;;;;;;;;;;;;;;;;;;5109731;28;19908;-71
2021/10/25 13:13:55;;;;;;;;;;;;;;;;;;5108024;28;19900;-71
2021/10/25 13:16:23;;;;;;;;;;;;;;;;;;5097887;28;19919;-71
2021/10/25 13:18:48;;;;;;;;;;;;;;;;;;5122457;27;19900;-71
2021/10/25 13:21:13;;;;;;;;;;;;;;;;;;5110926;28;19900;-71
2021/10/25 13:23:41;;;;;;;;;;;;;;;;;;5110512;28;19900;-72
2021/10/25 13:26:06;;;;;;;;;;;;;;;;;;5104176;28;19907;-71
2021/10/25 13:28:33;;;;;;;;;;;;;;;;;;5097889;28;19900;-71
2021/10/25 13:30:58;;;;;;;;;;;;;;;;;;5105566;28;19908;-71
2021/10/25 13:33:30;;;;;;;;;;;;;;;;;;5093262;28;20144;-71
2021/10/25 13:35:55;;;;;;;;;;;;;;;;;;5106343;28;19908;-71
2021/10/25 13:38:20;;;;;;;;;;;;;;;;;;5097714;28;19900;-75
2021/10/25 13:40:45;;;;;;;;;;;;;;;;;;5103691;28;20181;-71
2021/10/25 13:43:11;;;;;;;;;;;;;;;;;;5123795;28;19900;-72
2021/10/25 13:45:36;;;;;;;;;;;;;;;;;;5097670;28;19901;-71
2021/10/25 13:48:01;;;;;;;;;;;;;;;;;;5098182;28;19993;-71
2021/10/25 13:50:26;;;;;;;;;;;;;;;;;;5108632;28;19916;-72
2021/10/25 13:52:52;;;;;;;;;;;;;;;;;;5108175;28;19934;-71
2021/10/25 13:55:17;;;;;;;;;;;;;;;;;;5109000;28;19955;-71
2021/10/25 13:57:44;;;;;;;;;;;;;;;;;;5098347;28;19911;-72
2021/10/25 14:00:09;;;;;;;;;;;;;;;;;;5105071;28;19909;-71
2021/10/25 14:02:37;;;;;;;;;;;;;;;;;;5104021;28;19935;-71
2021/10/25 14:05:02;;;;;;;;;;;;;;;;;;5093061;28;19967;-72
2021/10/25 14:07:34;;;;;;;;;;;;;;;;;;5101197;28;19908;-72
2021/10/25 14:10:07;;;;;;;;;;;;;;;;;;5102985;28;19908;-72
2021/10/25 14:12:35;;;;;;;;;;;;;;;;;;5096908;28;20210;-72
2021/10/25 14:17:41;;;;;;;;;;;;;;;;;;5105938;28;19901;-72
2021/10/25 14:20:06;;;;;;;;;;;;;;;;;;5104891;28;19923;-72
2021/10/25 14:22:32;;;;;;;;;;;;;;;;;;5104374;28;20224;-72
2021/10/25 14:24:57;;;;;;;;;;;;;;;;;;5091862;28;19960;-72
2021/10/25 14:27:22;;;;;;;;;;;;;;;;;;5104562;28;19916;-72
2021/10/25 14:29:48;;;;;;;;;;;;;;;;;;5105697;28;19968;-72
2021/10/25 14:32:13;;;;;;;;;;;;;;;;;;5104381;28;19916;-72
2021/10/25 14:34:38;;;;;;;;;;;;;;;;;;5103347;28;19901;-72
2021/10/25 14:37:07;;;;;;;;;;;;;;;;;;5100873;28;19909;-72
2021/10/25 14:39:45;;;;;;;;;;;;;;;;;;5119996;28;20042;-73
2021/10/25 14:44:43;;;;;;;;;;;;;;;;;;5096505;28;19897;-71
2021/10/25 14:57:23;;;;;;;;;;;;;;;;;;5102095;28;19917;-70
2021/10/25 14:59:49;;;;;;;;;;;;;;;;;;5107012;28;19896;-70
2021/10/25 15:02:14;;;;;;;;;;;;;;;;;;5103322;28;19912;-71
2021/10/25 15:04:39;;;;;;;;;;;;;;;;;;5091896;28;19943;-71
2021/10/25 15:07:05;;;;;;;;;;;;;;;;;;5106659;28;19900;-70
2021/10/25 15:09:30;;;;;;;;;;;;;;;;;;5102512;28;20003;-70
2021/10/25 15:11:55;;;;;;;;;;;;;;;;;;5101596;28;19924;-70
2021/10/25 15:14:21;;;;;;;;;;;;;;;;;;5103255;28;19907;-69
2021/10/25 15:16:47;;;;;;;;;;;;;;;;;;5092704;28;19906;-71
2021/10/25 15:19:12;;;;;;;;;;;;;;;;;;5114563;28;19909;-72
2021/10/25 15:21:39;;;;;;;;;;;;;;;;;;5099714;28;19908;-72
2021/10/25 15:24:04;;;;;;;;;;;;;;;;;;5096535;28;19961;-71
2021/10/25 15:26:30;;;;;;;;;;;;;;;;;;5105495;28;19995;-71
2021/10/25 15:28:55;;;;;;;;;;;;;;;;;;5087816;28;19900;-71
2021/10/25 15:31:20;;;;;;;;;;;;;;;;;;5104846;28;19905;-71
2021/10/25 15:33:45;;;;;;;;;;;;;;;;;;5106897;28;19916;-72
2021/10/25 15:36:11;;;;;;;;;;;;;;;;;;5094081;28;19979;-71
2021/10/25 15:38:36;;;;;;;;;;;;;;;;;;5096170;28;19949;-72
2021/10/25 15:41:06;;;;;;;;;;;;;;;;;;5101518;28;19896;-73
2021/10/25 15:43:32;;;;;;;;;;;;;;;;;;5104557;28;19908;-73
2021/10/25 15:45:57;;;;;;;;;;;;;;;;;;5104661;28;19912;-74
2021/10/25 15:48:22;;;;;;;;;;;;;;;;;;5105331;28;19915;-73
2021/10/25 15:50:48;;;;;;;;;;;;;;;;;;5105096;28;19900;-71
2021/10/25 15:53:13;;;;;;;;;;;;;;;;;;5107881;28;19983;-71
2021/10/25 15:55:38;;;;;;;;;;;;;;;;;;5104451;28;19911;-72
2021/10/25 15:58:04;;;;;;;;;;;;;;;;;;5106914;28;19970;-72
2021/10/25 16:00:29;;;;;;;;;;;;;;;;;;5107776;28;19900;-71
2021/10/25 16:02:54;;;;;;;;;;;;;;;;;;5102984;28;19916;-71
2021/10/25 16:05:21;;;;;;;;;;;;;;;;;;5105919;28;19912;-71
2021/10/25 16:07:47;;;;;;;;;;;;;;;;;;5104004;28;19946;-72
2021/10/25 16:10:14;;;;;;;;;;;;;;;;;;5106348;28;19904;-73
2021/10/25 16:12:39;;;;;;;;;;;;;;;;;;5106224;28;19905;-71
2021/10/25 16:15:04;;;;;;;;;;;;;;;;;;5103248;28;19999;-72
2021/10/25 16:17:30;;;;;;;;;;;;;;;;;;5104598;28;19918;-72
2021/10/25 16:19:57;;;;;;;;;;;;;;;;;;5103692;28;20186;-72
2021/10/25 16:22:22;;;;;;;;;;;;;;;;;;5119485;28;19943;-72
2021/10/25 16:24:48;;;;;;;;;;;;;;;;;;5108812;28;19900;-72
2021/10/25 16:27:13;;;;;;;;;;;;;;;;;;5104659;28;19909;-72
2021/10/25 16:29:39;;;;;;;;;;;;;;;;;;5092432;28;19901;-72
2021/10/25 16:32:05;;;;;;;;;;;;;;;;;;5105888;28;19920;-72
2021/10/25 16:34:30;;;;;;;;;;;;;;;;;;5105203;28;19911;-72
2021/10/25 16:36:55;;;;;;;;;;;;;;;;;;5104805;28;19936;-72
2021/10/25 16:39:20;;;;;;;;;;;;;;;;;;5107236;28;19916;-72
2021/10/25 16:41:46;;;;;;;;;;;;;;;;;;5108303;28;19900;-72
2021/10/25 16:44:11;;;;;;;;;;;;;;;;;;5119861;28;19909;-72
2021/10/25 16:46:36;;;;;;;;;;;;;;;;;;5096415;28;19897;-72
2021/10/25 16:49:09;;;;;;;;;;;;;;;;;;5088985;28;19901;-72
2021/10/25 16:51:39;;;;;;;;;;;;;;;;;;5104858;28;19912;-72
2021/10/25 16:55:01;;;;;;;;;;;;;;;;;;5107009;28;20017;-72
2021/10/25 17:10:17;;;;;;;;;;;;;;;;;;5104500;28;19950;-73
2021/10/25 17:12:42;;;;;;;;;;;;;;;;;;5089062;28;20140;-72
2021/10/25 17:15:07;;;;;;;;;;;;;;;;;;5104783;28;19900;-72
2021/10/25 17:17:32;;;;;;;;;;;;;;;;;;5107930;28;19908;-72
2021/10/25 17:19:58;;;;;;;;;;;;;;;;;;5092861;28;19930;-72
2021/10/25 17:22:23;;;;;;;;;;;;;;;;;;5105006;28;19907;-72
2021/10/25 17:24:48;;;;;;;;;;;;;;;;;;5105060;28;19900;-72
2021/10/25 17:27:13;;;;;;;;;;;;;;;;;;5103474;28;19912;-72
2021/10/25 17:29:39;;;;;;;;;;;;;;;;;;5089651;28;19908;-72
2021/10/25 17:32:04;;;;;;;;;;;;;;;;;;5105491;28;19915;-72
2021/10/25 17:34:30;;;;;;;;;;;;;;;;;;5105584;28;19918;-72
2021/10/25 17:36:55;;;;;;;;;;;;;;;;;;5094447;28;19916;-72
2021/10/25 17:39:21;;;;;;;;;;;;;;;;;;5102359;28;19909;-72
2021/10/25 17:41:46;;;;;;;;;;;;;;;;;;5093492;28;19901;-72
2021/10/25 17:44:11;;;;;;;;;;;;;;;;;;5105232;28;19905;-72
2021/10/25 17:46:37;;;;;;;;;;;;;;;;;;5124634;27;19908;-72
2021/10/25 17:49:03;;;;;;;;;;;;;;;;;;5105429;28;19943;-72
2021/10/25 17:51:29;;;;;;;;;;;;;;;;;;5121381;28;19930;-72
2021/10/25 17:53:57;;;;;;;;;;;;;;;;;;5106436;28;19920;-73
2021/10/25 17:56:22;;;;;;;;;;;;;;;;;;5105784;28;19926;-73
2021/10/25 17:58:47;;;;;;;;;;;;;;;;;;5102346;28;19940;-72
2021/10/25 18:01:12;;;;;;;;;;;;;;;;;;5102990;28;19896;-72
2021/10/25 18:03:42;;;;;;;;;;;;;;;;;;5104308;28;20023;-72
2021/10/25 18:06:07;;;;;;;;;;;;;;;;;;5104797;28;19912;-72
2021/10/25 18:08:33;;;;;;;;;;;;;;;;;;5095015;28;19960;-72
2021/10/25 18:10:58;;;;;;;;;;;;;;;;;;5102853;28;19935;-72
2021/10/25 18:13:23;;;;;;;;;;;;;;;;;;5099579;28;19908;-72
2021/10/25 18:15:48;;;;;;;;;;;;;;;;;;5094526;28;19992;-73
2021/10/25 18:18:16;;;;;;;;;;;;;;;;;;5101418;28;19920;-73
2021/10/25 18:20:42;;;;;;;;;;;;;;;;;;5103900;28;19896;-73
2021/10/25 18:23:07;;;;;;;;;;;;;;;;;;5104108;28;19939;-73
2021/10/25 18:25:32;;;;;;;;;;;;;;;;;;5093120;28;19906;-73
2021/10/25 18:27:58;;;;;;;;;;;;;;;;;;5089779;28;19909;-73
2021/10/25 18:30:23;;;;;;;;;;;;;;;;;;5104639;28;20119;-73
2021/10/25 18:32:48;;;;;;;;;;;;;;;;;;5102845;28;20342;-73
2021/10/25 18:35:13;;;;;;;;;;;;;;;;;;5105008;28;19908;-72
2021/10/25 18:37:39;;;;;;;;;;;;;;;;;;5101899;28;19923;-72
2021/10/25 18:40:04;;;;;;;;;;;;;;;;;;5103398;28;19999;-73
2021/10/25 18:42:29;;;;;;;;;;;;;;;;;;5105397;28;19911;-72
2021/10/25 18:44:55;;;;;;;;;;;;;;;;;;5104083;28;19922;-72
2021/10/25 18:47:21;;;;;;;;;;;;;;;;;;5094535;28;20208;-72
2021/10/25 18:49:47;;;;;;;;;;;;;;;;;;5100511;28;19931;-72
2021/10/25 18:52:12;;;;;;;;;;;;;;;;;;5084297;28;19904;-73
2021/10/25 18:54:37;;;;;;;;;;;;;;;;;;5088302;28;19967;-73
2021/10/25 18:57:03;;;;;;;;;;;;;;;;;;5103424;28;19951;-73
2021/10/25 18:59:28;;;;;;;;;;;;;;;;;;5084042;28;19915;-71